Time;durP1;ratioP1;P1;durP2;ratioP2;P2;SDS_P1;SDS_P2;PMS_P1;PMS_P2;Temp;Humidity;BMP_temperature;BMP_pressure;BME280_temperature;BME280_humidity;BME280_pressure;Samples;Min_cycle;Max_cycle;Signal;HPM_P1;HPM_P2
2022/05/19 00:01:06;;;;;;;10.55;2.67;;;37.90;19.10;;;;;;5071322;28;20021;-62
2022/05/19 00:03:35;;;;;;;15.00;3.00;;;38.00;18.80;;;;;;5069503;28;20078;-61
2022/05/19 00:06:03;;;;;;;12.40;2.90;;;37.80;19.10;;;;;;5069534;28;20458;-62
2022/05/19 00:08:31;;;;;;;13.77;2.85;;;38.00;19.00;;;;;;5054573;28;20482;-62
2022/05/19 00:11:01;;;;;;;16.08;2.83;;;38.10;19.00;;;;;;5072052;28;20024;-63
2022/05/19 00:13:30;;;;;;;23.83;3.45;;;38.00;19.40;;;;;;5070766;28;20032;-60
2022/05/19 00:15:56;;;;;;;17.40;3.17;;;37.90;19.40;;;;;;5069503;28;20021;-65
2022/05/19 00:18:23;;;;;;;21.23;4.03;;;37.80;19.10;;;;;;5036540;28;20131;-61
2022/05/19 00:20:50;;;;;;;12.23;2.63;;;37.80;19.10;;;;;;5068683;28;20048;-64
2022/05/19 00:23:17;;;;;;;32.90;4.05;;;37.70;19.60;;;;;;5070227;28;20478;-61
2022/05/19 00:25:43;;;;;;;18.52;3.00;;;37.60;20.20;;;;;;5052803;28;20021;-62
2022/05/19 00:28:10;;;;;;;36.55;6.82;;;37.50;19.60;;;;;;5070248;28;20025;-64
2022/05/19 00:30:37;;;;;;;20.48;3.47;;;37.50;19.40;;;;;;5070655;28;20486;-64
2022/05/19 00:33:04;;;;;;;34.60;3.40;;;37.50;19.30;;;;;;5069755;28;20024;-63
2022/05/19 00:35:31;;;;;;;27.70;3.80;;;37.50;19.80;;;;;;5068075;28;20540;-64
2022/05/19 00:37:57;;;;;;;14.18;2.67;;;37.50;19.90;;;;;;5067906;28;20478;-63
2022/05/19 00:40:25;;;;;;;68.82;7.97;;;37.40;19.60;;;;;;5067555;28;20028;-64
2022/05/19 00:42:51;;;;;;;12.60;3.30;;;37.40;19.70;;;;;;5073352;28;20036;-65
2022/05/19 00:45:25;;;;;;;34.28;3.20;;;37.20;20.00;;;;;;5069445;28;20017;-64
2022/05/19 00:48:14;;;;;;;21.13;3.38;;;37.30;19.70;;;;;;5069196;28;20029;-64
2022/05/19 00:50:45;;;;;;;21.25;3.63;;;37.20;19.70;;;;;;5071444;28;20028;-63
2022/05/19 00:53:28;;;;;;;22.80;3.10;;;36.90;20.10;;;;;;5068945;28;20413;-63
2022/05/19 00:55:57;;;;;;;15.32;2.53;;;36.90;20.20;;;;;;5069635;28;20981;-66
2022/05/19 00:58:28;;;;;;;39.65;4.18;;;36.90;19.90;;;;;;5068720;28;20386;-64
2022/05/19 01:00:56;;;;;;;41.88;4.03;;;36.80;20.30;;;;;;5053312;28;20020;-63
2022/05/19 01:03:24;;;;;;;44.22;4.53;;;36.60;20.70;;;;;;5067748;28;20031;-62
2022/05/19 01:05:55;;;;;;;112.07;8.18;;;36.50;20.90;;;;;;5071566;28;20024;-66
2022/05/19 01:08:59;;;;;;;19.60;3.50;;;36.40;20.10;;;;;;5069534;28;20032;-66
2022/05/19 01:11:26;;;;;;;35.20;3.53;;;36.40;20.60;;;;;;5066553;28;20024;-63
2022/05/19 01:13:52;;;;;;;14.95;2.60;;;36.30;20.80;;;;;;5068726;28;20086;-64
2022/05/19 01:16:19;;;;;;;16.23;3.05;;;36.30;20.20;;;;;;5069539;28;20024;-62
2022/05/19 01:18:46;;;;;;;20.42;3.30;;;36.20;20.70;;;;;;5069433;28;20542;-64
2022/05/19 01:21:15;;;;;;;20.02;3.28;;;36.00;20.50;;;;;;5070824;28;20037;-65
2022/05/19 01:24:16;;;;;;;29.52;4.55;;;36.00;21.00;;;;;;5072273;28;20021;-65
2022/05/19 01:26:52;;;;;;;32.13;3.60;;;35.90;21.00;;;;;;5071556;28;20170;-63
2022/05/19 01:29:24;;;;;;;22.45;3.10;;;35.80;21.00;;;;;;5066016;28;20040;-63
2022/05/19 01:31:52;;;;;;;17.63;3.50;;;35.70;21.20;;;;;;5067845;28;20035;-64
2022/05/19 01:34:21;;;;;;;17.00;3.40;;;35.60;21.20;;;;;;5067545;28;20382;-64
2022/05/19 01:36:48;;;;;;;20.58;3.50;;;35.50;20.80;;;;;;5066269;28;20394;-63
2022/05/19 01:39:25;;;;;;;15.43;3.25;;;35.50;21.20;;;;;;5068160;28;20548;-67
2022/05/19 01:42:18;;;;;;;22.38;3.20;;;35.50;20.60;;;;;;5069904;28;20020;-63
2022/05/19 01:44:53;;;;;;;21.60;3.15;;;35.40;20.50;;;;;;5067915;28;20025;-67
2022/05/19 01:48:14;;;;;;;14.23;2.88;;;35.50;21.10;;;;;;5068615;28;20482;-65
2022/05/19 01:50:53;;;;;;;22.70;3.28;;;35.50;21.20;;;;;;4991853;28;20470;-64
2022/05/19 01:53:26;;;;;;;18.63;3.42;;;35.60;20.80;;;;;;5006723;28;20046;-63
2022/05/19 01:56:00;;;;;;;22.92;3.85;;;35.70;20.50;;;;;;4990991;28;20036;-63
2022/05/19 01:58:56;;;;;;;14.88;3.10;;;35.90;20.40;;;;;;4991313;28;20033;-64
2022/05/19 02:01:27;;;;;;;21.13;3.50;;;35.70;20.50;;;;;;4991108;28;20018;-65
2022/05/19 02:04:08;;;;;;;18.67;3.30;;;35.50;21.10;;;;;;5004998;28;20479;-65
2022/05/19 02:06:40;;;;;;;21.83;3.78;;;35.20;20.80;;;;;;4988712;28;20031;-64
2022/05/19 02:09:19;;;;;;;23.80;3.15;;;34.90;21.30;;;;;;4990332;28;20030;-63
2022/05/19 02:11:54;;;;;;;27.25;4.47;;;34.80;21.30;;;;;;4992198;28;20041;-62
2022/05/19 02:14:27;;;;;;;33.42;3.90;;;34.60;21.50;;;;;;4992082;28;20026;-63
2022/05/19 02:16:55;;;;;;;24.10;3.42;;;34.40;21.60;;;;;;4973458;28;20030;-65
2022/05/19 02:19:26;;;;;;;36.97;4.18;;;34.30;21.90;;;;;;5005654;28;20074;-65
2022/05/19 02:21:54;;;;;;;36.08;4.25;;;34.20;22.10;;;;;;4991562;28;20162;-65
2022/05/19 02:24:25;;;;;;;30.63;4.22;;;34.00;22.10;;;;;;5030505;28;20382;-68
2022/05/19 02:26:51;;;;;;;31.15;4.32;;;34.00;22.30;;;;;;5065987;28;20029;-63
2022/05/19 02:29:26;;;;;;;28.27;4.55;;;33.80;23.00;;;;;;5049072;28;20085;-63
2022/05/19 02:31:53;;;;;;;27.23;4.30;;;33.70;23.10;;;;;;5067498;28;20464;-61
2022/05/19 02:34:19;;;;;;;34.72;3.95;;;33.70;23.10;;;;;;5081755;28;20040;-63
2022/05/19 02:36:47;;;;;;;26.45;3.70;;;33.60;22.50;;;;;;5069284;28;20048;-64
2022/05/19 02:39:13;;;;;;;23.00;3.75;;;33.50;22.50;;;;;;5066357;28;20055;-63
2022/05/19 02:41:40;;;;;;;30.75;4.15;;;33.50;23.20;;;;;;5065960;28;20471;-62
2022/05/19 02:44:06;;;;;;;31.45;4.63;;;33.40;22.80;;;;;;5079800;28;20033;-64
2022/05/19 02:46:33;;;;;;;26.70;4.70;;;33.30;23.40;;;;;;5067161;28;20054;-60
2022/05/19 02:49:01;;;;;;;42.70;5.28;;;33.10;23.20;;;;;;5065409;28;20100;-61
2022/05/19 02:51:28;;;;;;;24.63;4.97;;;33.10;23.60;;;;;;5077941;28;20104;-61
2022/05/19 02:53:54;;;;;;;44.80;5.93;;;33.00;23.80;;;;;;5066826;28;20127;-61
2022/05/19 02:56:21;;;;;;;37.17;4.93;;;32.90;23.90;;;;;;5066797;28;20048;-62
2022/05/19 02:58:47;;;;;;;35.35;6.15;;;32.80;24.30;;;;;;5066332;28;20047;-62
2022/05/19 03:01:13;;;;;;;32.35;5.45;;;32.80;24.80;;;;;;5049750;28;20461;-61
2022/05/19 03:03:40;;;;;;;44.13;4.80;;;32.70;24.90;;;;;;5050863;28;20135;-61
2022/05/19 03:06:06;;;;;;;41.25;5.88;;;32.60;25.10;;;;;;5065265;28;20388;-62
2022/05/19 03:08:32;;;;;;;52.83;8.55;;;32.60;25.20;;;;;;5066362;28;20111;-62
2022/05/19 03:10:59;;;;;;;37.25;5.93;;;32.50;25.20;;;;;;5067770;28;20049;-62
2022/05/19 03:13:25;;;;;;;38.03;5.70;;;32.40;25.50;;;;;;5068738;28;20062;-63
2022/05/19 03:15:52;;;;;;;32.95;6.88;;;32.30;25.80;;;;;;5065267;28;20059;-63
2022/05/19 03:18:18;;;;;;;44.00;5.45;;;32.20;25.90;;;;;;5066120;28;20082;-64
2022/05/19 03:20:45;;;;;;;48.40;5.72;;;32.20;26.20;;;;;;5068599;28;20486;-66
2022/05/19 03:23:11;;;;;;;38.63;6.20;;;32.10;25.90;;;;;;5068995;28;20487;-65
2022/05/19 03:25:38;;;;;;;47.58;5.90;;;32.00;26.50;;;;;;5067753;28;20050;-65
2022/05/19 03:28:04;;;;;;;55.20;6.93;;;32.00;26.40;;;;;;5066257;28;20047;-64
2022/05/19 03:30:31;;;;;;;48.75;6.50;;;31.90;26.60;;;;;;5066844;28;20100;-63
2022/05/19 03:32:57;;;;;;;59.17;6.85;;;31.80;26.70;;;;;;5067391;28;20401;-63
2022/05/19 03:35:24;;;;;;;50.40;6.90;;;31.80;27.00;;;;;;5066547;28;20122;-64
2022/05/19 03:37:50;;;;;;;47.55;6.65;;;31.70;26.90;;;;;;5066980;28;20106;-64
2022/05/19 03:40:19;;;;;;;53.60;6.65;;;31.60;27.00;;;;;;5063437;28;20059;-67
2022/05/19 03:42:46;;;;;;;36.42;5.72;;;31.60;27.00;;;;;;5067341;28;20036;-65
2022/05/19 03:45:12;;;;;;;50.70;7.15;;;31.50;27.60;;;;;;5066721;28;20650;-64
2022/05/19 03:47:39;;;;;;;56.95;6.55;;;31.40;27.70;;;;;;5067111;28;20042;-65
2022/05/19 03:50:06;;;;;;;59.22;7.32;;;31.40;27.40;;;;;;5065792;28;20100;-64
2022/05/19 03:52:35;;;;;;;59.17;7.63;;;31.30;27.70;;;;;;5050100;28;20532;-64
2022/05/19 03:55:01;;;;;;;74.25;8.73;;;31.30;27.60;;;;;;5065039;28;20045;-63
2022/05/19 03:57:28;;;;;;;49.67;7.85;;;31.10;27.60;;;;;;5067711;28;20042;-64
2022/05/19 03:59:55;;;;;;;41.20;6.78;;;31.10;27.60;;;;;;5067863;28;20071;-65
2022/05/19 04:02:21;;;;;;;43.53;8.18;;;30.90;27.70;;;;;;5075264;28;20068;-64
2022/05/19 04:04:47;;;;;;;63.83;8.70;;;30.90;27.90;;;;;;5067466;28;20060;-64
2022/05/19 04:07:14;;;;;;;63.45;7.68;;;30.80;28.10;;;;;;5067985;28;20058;-64
2022/05/19 04:09:40;;;;;;;69.60;8.98;;;30.70;28.20;;;;;;5068186;28;20657;-68
2022/05/19 04:12:07;;;;;;;58.50;8.25;;;30.60;28.40;;;;;;5067468;28;20046;-65
2022/05/19 04:14:34;;;;;;;66.00;8.60;;;30.50;28.60;;;;;;5067659;28;20049;-64
2022/05/19 04:17:01;;;;;;;51.60;8.13;;;30.60;28.80;;;;;;5067407;28;20694;-65
2022/05/19 04:19:27;;;;;;;67.65;9.60;;;30.50;28.80;;;;;;5067350;28;20537;-63
2022/05/19 04:21:54;;;;;;;52.53;8.75;;;30.40;29.20;;;;;;5068316;28;20556;-63
2022/05/19 04:24:20;;;;;;;49.83;8.13;;;30.40;29.20;;;;;;5067243;28;20416;-64
2022/05/19 04:26:49;;;;;;;59.33;9.07;;;30.30;29.00;;;;;;5069107;28;20051;-64
2022/05/19 04:29:15;;;;;;;62.05;8.90;;;30.30;29.20;;;;;;5072852;28;20048;-64
2022/05/19 04:31:41;;;;;;;60.10;9.15;;;30.20;29.80;;;;;;5072003;28;20054;-66
2022/05/19 04:34:08;;;;;;;48.30;8.45;;;30.20;29.50;;;;;;5071038;28;20052;-66
2022/05/19 04:36:34;;;;;;;59.95;7.97;;;30.10;29.40;;;;;;5070871;28;20101;-66
2022/05/19 04:39:01;;;;;;;59.80;8.77;;;30.00;29.00;;;;;;5086143;28;20144;-64
2022/05/19 04:41:27;;;;;;;63.38;9.07;;;30.00;29.20;;;;;;5068847;28;20613;-64
2022/05/19 04:43:53;;;;;;;63.40;9.88;;;29.90;29.20;;;;;;5069499;28;20061;-64
2022/05/19 04:46:20;;;;;;;71.65;10.35;;;29.80;29.40;;;;;;5069458;28;20055;-65
2022/05/19 04:48:46;;;;;;;71.40;10.95;;;29.80;29.60;;;;;;5070419;28;20082;-63
2022/05/19 04:51:13;;;;;;;66.93;11.18;;;29.70;29.70;;;;;;5087358;28;20054;-61
2022/05/19 04:53:39;;;;;;;73.15;9.52;;;29.60;29.90;;;;;;5069127;28;20071;-64
2022/05/19 04:56:05;;;;;;;82.82;10.32;;;29.60;32.40;;;;;;5072285;28;20049;-64
2022/05/19 04:58:32;;;;;;;71.43;9.48;;;29.60;30.80;;;;;;5069981;28;20062;-63
2022/05/19 05:00:58;;;;;;;62.40;9.82;;;29.60;30.70;;;;;;5070084;28;20175;-64
2022/05/19 05:03:25;;;;;;;64.95;10.05;;;29.60;30.90;;;;;;5067534;28;20042;-64
2022/05/19 05:05:51;;;;;;;60.40;9.82;;;29.50;32.00;;;;;;5069631;28;20054;-65
2022/05/19 05:08:18;;;;;;;67.28;9.57;;;29.50;31.20;;;;;;5070744;28;20394;-64
2022/05/19 05:10:44;;;;;;;75.43;10.07;;;29.40;31.10;;;;;;5086724;28;20047;-65
2022/05/19 05:13:13;;;;;;;78.75;12.93;;;29.40;30.90;;;;;;5070636;28;20046;-64
2022/05/19 05:15:40;;;;;;;79.78;13.27;;;29.40;30.50;;;;;;5070779;28;20501;-64
2022/05/19 05:18:07;;;;;;;90.25;15.48;;;29.40;29.80;;;;;;5070343;28;20093;-64
2022/05/19 05:20:36;;;;;;;96.70;16.30;;;29.40;29.70;;;;;;5052991;28;20081;-65
2022/05/19 05:23:03;;;;;;;103.57;16.38;;;29.40;29.50;;;;;;5053385;28;20118;-63
2022/05/19 05:25:29;;;;;;;107.53;16.80;;;29.50;29.90;;;;;;5053029;28;20249;-66
2022/05/19 05:28:00;;;;;;;100.63;17.48;;;29.40;29.90;;;;;;5069969;28;20094;-64
2022/05/19 05:30:27;;;;;;;117.15;19.67;;;29.40;29.70;;;;;;5069607;28;20101;-65
2022/05/19 05:32:53;;;;;;;103.03;17.73;;;29.40;29.40;;;;;;5068152;28;20056;-64
2022/05/19 05:35:20;;;;;;;90.00;17.20;;;29.40;29.60;;;;;;5070629;28;20125;-64
2022/05/19 05:37:46;;;;;;;71.60;14.40;;;29.40;29.70;;;;;;5069148;28;20066;-64
2022/05/19 05:40:13;;;;;;;90.00;14.05;;;29.30;30.00;;;;;;5068748;28;20162;-63
2022/05/19 05:42:40;;;;;;;78.53;12.35;;;29.20;30.60;;;;;;5066991;28;20048;-64
2022/05/19 05:45:08;;;;;;;78.95;12.77;;;29.20;31.30;;;;;;5083647;28;20161;-64
2022/05/19 05:47:35;;;;;;;74.20;12.77;;;29.10;31.90;;;;;;5069216;28;20068;-63
2022/05/19 05:50:01;;;;;;;73.18;13.73;;;29.00;32.30;;;;;;5069015;28;20076;-64
2022/05/19 05:52:27;;;;;;;78.43;11.90;;;29.10;32.90;;;;;;5069823;28;20122;-65
2022/05/19 05:54:54;;;;;;;69.55;12.43;;;28.90;33.70;;;;;;5069874;28;20054;-64
2022/05/19 05:57:21;;;;;;;76.45;12.48;;;28.90;34.50;;;;;;5052978;28;20076;-64
2022/05/19 05:59:47;;;;;;;75.68;12.70;;;28.90;35.00;;;;;;5068726;28;20427;-64
2022/05/19 06:02:15;;;;;;;66.32;12.30;;;28.80;35.70;;;;;;5074773;28;20072;-65
2022/05/19 06:04:42;;;;;;;70.63;11.63;;;28.70;36.30;;;;;;5069911;28;20085;-64
2022/05/19 06:07:09;;;;;;;68.07;10.68;;;28.60;38.10;;;;;;5070115;28;20080;-66
2022/05/19 06:09:38;;;;;;;65.10;9.57;;;28.50;39.70;;;;;;5069305;28;20117;-63
2022/05/19 06:12:04;;;;;;;61.95;8.23;;;28.40;40.70;;;;;;5069328;28;20067;-64
2022/05/19 06:14:31;;;;;;;60.35;8.02;;;28.30;41.50;;;;;;5067790;28;20062;-63
2022/05/19 06:16:58;;;;;;;55.78;7.88;;;28.30;42.30;;;;;;5085216;28;20161;-64
2022/05/19 06:19:24;;;;;;;56.88;7.65;;;28.20;42.90;;;;;;5068830;28;20102;-63
2022/05/19 06:21:51;;;;;;;68.00;8.38;;;28.20;43.50;;;;;;5069969;28;20112;-63
2022/05/19 06:24:17;;;;;;;38.30;6.65;;;28.20;43.70;;;;;;5068549;28;20048;-63
2022/05/19 06:26:43;;;;;;;43.75;6.65;;;28.20;43.90;;;;;;5086755;28;20542;-64
2022/05/19 06:29:10;;;;;;;45.75;7.68;;;28.10;44.40;;;;;;5070240;28;20147;-63
2022/05/19 06:31:37;;;;;;;42.45;6.55;;;28.10;44.40;;;;;;5084495;28;20114;-64
2022/05/19 06:34:04;;;;;;;38.85;6.32;;;28.00;44.60;;;;;;5052191;28;20095;-63
2022/05/19 06:36:31;;;;;;;43.28;6.80;;;28.00;44.70;;;;;;5069292;28;20065;-64
2022/05/19 06:38:58;;;;;;;34.10;6.63;;;28.00;44.80;;;;;;5069369;28;20071;-63
2022/05/19 06:44:09;;;;;;;28.05;5.78;;;27.90;45.40;;;;;;5067984;28;20071;-65
2022/05/19 06:46:36;;;;;;;27.30;5.60;;;27.90;45.70;;;;;;5066784;28;20074;-65
2022/05/19 06:49:04;;;;;;;33.53;5.82;;;27.80;46.00;;;;;;5067949;28;20502;-63
2022/05/19 06:51:31;;;;;;;27.80;5.45;;;27.70;46.30;;;;;;5084767;28;20073;-63
2022/05/19 06:53:58;;;;;;;24.20;4.78;;;27.60;46.60;;;;;;5069356;28;20441;-63
2022/05/19 06:56:24;;;;;;;26.92;5.13;;;27.50;47.30;;;;;;5083446;28;21158;-63
2022/05/19 06:58:51;;;;;;;24.40;4.97;;;27.40;47.60;;;;;;5069913;28;20527;-64
2022/05/19 07:01:18;;;;;;;27.40;4.32;;;27.30;48.00;;;;;;5068129;28;20068;-65
2022/05/19 07:03:44;;;;;;;29.92;5.25;;;27.20;48.20;;;;;;5068019;28;20059;-65
2022/05/19 07:06:13;;;;;;;26.45;4.65;;;27.10;48.50;;;;;;5068197;28;20477;-64
2022/05/19 07:08:40;;;;;;;22.13;4.93;;;27.00;48.70;;;;;;5069560;28;20149;-64
2022/05/19 07:11:24;;;;;;;31.27;5.22;;;26.90;49.00;;;;;;5068850;28;20066;-64
2022/05/19 07:13:55;;;;;;;16.63;4.45;;;26.90;49.50;;;;;;5067827;28;20168;-64
2022/05/19 07:16:22;;;;;;;24.60;4.47;;;26.90;49.80;;;;;;5069022;28;20110;-64
2022/05/19 07:18:49;;;;;;;23.63;5.30;;;26.80;50.70;;;;;;5068084;28;20103;-64
2022/05/19 07:21:18;;;;;;;19.88;4.50;;;26.80;52.50;;;;;;5068397;28;20572;-65
2022/05/19 07:23:48;;;;;;;19.40;4.65;;;26.50;53.60;;;;;;5068473;28;20079;-64
2022/05/19 07:26:15;;;;;;;23.90;5.20;;;26.50;54.80;;;;;;5068589;28;20064;-63
2022/05/19 07:28:41;;;;;;;23.40;5.07;;;26.40;55.50;;;;;;5074356;28;20433;-66
2022/05/19 07:31:08;;;;;;;18.27;4.60;;;26.40;56.00;;;;;;5067358;28;20441;-61
2022/05/19 07:33:36;;;;;;;22.98;4.55;;;26.40;56.10;;;;;;5083930;28;20598;-66
2022/05/19 07:36:06;;;;;;;20.20;4.97;;;26.40;56.20;;;;;;5067347;28;20077;-65
2022/05/19 07:38:34;;;;;;;25.73;5.32;;;26.40;56.50;;;;;;5067779;28;20078;-65
2022/05/19 07:41:00;;;;;;;22.05;5.22;;;26.40;56.70;;;;;;5067946;28;20476;-66
2022/05/19 07:43:41;;;;;;;25.92;5.65;;;26.40;57.10;;;;;;5067140;28;20110;-67
2022/05/19 07:46:10;;;;;;;21.77;5.32;;;26.40;57.30;;;;;;5065702;28;20065;-66
2022/05/19 07:48:38;;;;;;;26.98;5.25;;;26.30;56.50;;;;;;5065799;28;20086;-65
2022/05/19 07:51:05;;;;;;;18.90;4.18;;;26.20;55.80;;;;;;5066822;28;20595;-65
2022/05/19 07:53:31;;;;;;;23.88;4.53;;;26.10;55.60;;;;;;5068018;28;20091;-66
2022/05/19 07:55:58;;;;;;;19.63;4.85;;;26.00;54.10;;;;;;5067506;28;20068;-66
2022/05/19 07:58:24;;;;;;;21.50;5.05;;;26.00;54.30;;;;;;5067176;28;20127;-67
2022/05/19 08:00:52;;;;;;;19.92;4.10;;;26.00;53.50;;;;;;5068629;28;20101;-67
2022/05/19 08:03:20;;;;;;;21.13;5.07;;;26.00;53.50;;;;;;5069987;28;20146;-66
2022/05/19 08:05:47;;;;;;;20.85;4.45;;;26.00;54.10;;;;;;5070672;28;20065;-66
2022/05/19 08:08:13;;;;;;;17.33;4.90;;;25.90;52.40;;;;;;5070863;28;20112;-65
2022/05/19 08:10:40;;;;;;;17.15;3.70;;;25.80;51.90;;;;;;5071649;28;20166;-66
2022/05/19 08:15:51;;;;;;;19.23;5.05;;;25.70;51.50;;;;;;5057324;28;20105;-65
2022/05/19 08:18:20;;;;;;;17.27;5.10;;;25.70;52.00;;;;;;5070030;28;20710;-65
2022/05/19 08:20:53;;;;;;;21.55;5.93;;;25.70;52.30;;;;;;5070264;28;20554;-65
2022/05/19 08:23:39;;;;;;;20.35;5.20;;;25.60;52.90;;;;;;5070164;28;20073;-64
2022/05/19 08:26:10;;;;;;;24.17;4.72;;;25.50;52.90;;;;;;5070386;28;20084;-64
2022/05/19 08:28:38;;;;;;;19.65;4.45;;;25.30;53.00;;;;;;5072940;28;20076;-66
2022/05/19 08:31:08;;;;;;;16.20;3.85;;;25.30;53.30;;;;;;5068829;28;20535;-65
2022/05/19 08:33:37;;;;;;;19.98;4.68;;;25.40;53.70;;;;;;5070699;28;20080;-65
2022/05/19 08:36:05;;;;;;;19.80;4.30;;;25.30;54.00;;;;;;5068685;28;20071;-65
2022/05/19 08:38:31;;;;;;;16.35;5.47;;;25.30;54.80;;;;;;5069835;28;20469;-66
2022/05/19 08:41:03;;;;;;;15.95;4.93;;;25.20;55.80;;;;;;5071229;28;20060;-67
2022/05/19 08:43:41;;;;;;;25.40;5.00;;;25.10;57.40;;;;;;5070830;28;20063;-66
2022/05/19 08:46:11;;;;;;;22.55;4.57;;;25.00;58.10;;;;;;5068890;28;20450;-66
2022/05/19 08:48:39;;;;;;;25.45;4.32;;;24.90;58.40;;;;;;5069144;28;20087;-67
2022/05/19 08:51:07;;;;;;;17.02;3.55;;;24.90;57.90;;;;;;5086881;28;20076;-66
2022/05/19 08:53:41;;;;;;;18.13;3.90;;;24.90;57.20;;;;;;5085284;28;20625;-65
2022/05/19 08:56:12;;;;;;;23.80;3.92;;;24.90;56.90;;;;;;5070861;28;20070;-65
2022/05/19 08:59:01;;;;;;;18.33;3.58;;;24.90;56.50;;;;;;5070183;28;20088;-65
2022/05/19 09:01:50;;;;;;;18.35;3.58;;;24.80;56.60;;;;;;5073628;28;20061;-66
2022/05/19 09:04:23;;;;;;;15.40;3.75;;;24.80;57.90;;;;;;5085817;28;20069;-65
2022/05/19 09:10:16;;;;;;;22.02;4.60;;;24.70;60.70;;;;;;5070327;28;20073;-65
2022/05/19 09:12:46;;;;;;;26.90;4.90;;;24.60;63.30;;;;;;5069938;28;20166;-64
2022/05/19 09:15:12;;;;;;;23.30;4.65;;;24.60;65.40;;;;;;5068368;28;20168;-65
2022/05/19 09:17:44;;;;;;;17.27;4.85;;;24.60;67.50;;;;;;5069471;28;20098;-67
2022/05/19 09:20:14;;;;;;;23.40;5.70;;;24.40;70.30;;;;;;5068869;28;20079;-68
2022/05/19 09:22:40;;;;;;;21.60;5.10;;;24.30;73.10;;;;;;5069635;28;20155;-65
2022/05/19 09:25:13;;;;;;;25.88;5.60;;;24.30;75.70;;;;;;5069194;28;20498;-65
2022/05/19 09:27:42;;;;;;;23.00;6.35;;;24.20;78.10;;;;;;5069392;28;20070;-65
2022/05/19 09:30:48;;;;;;;20.98;5.18;;;24.20;79.90;;;;;;5069350;28;20555;-65
2022/05/19 09:33:17;;;;;;;21.08;5.63;;;24.10;83.30;;;;;;5068676;28;20075;-66
2022/05/19 09:35:50;;;;;;;26.73;6.47;;;23.90;85.60;;;;;;5069231;28;20168;-66
2022/05/19 09:38:43;;;;;;;28.17;6.95;;;23.90;88.70;;;;;;5068955;28;20087;-66
2022/05/19 09:41:34;;;;;;;32.47;6.95;;;23.90;90.80;;;;;;5067514;28;20066;-67
2022/05/19 09:44:03;;;;;;;30.42;7.25;;;23.80;91.80;;;;;;5084746;28;20072;-67
2022/05/19 09:46:50;;;;;;;23.70;5.78;;;23.80;92.70;;;;;;5067984;28;20155;-65
2022/05/19 09:49:30;;;;;;;31.13;6.10;;;23.80;93.30;;;;;;5067789;28;20110;-65
2022/05/19 09:52:02;;;;;;;24.98;5.90;;;23.70;94.70;;;;;;5051806;28;20306;-65
2022/05/19 09:54:31;;;;;;;23.98;6.72;;;23.80;96.00;;;;;;5067955;28;20141;-65
2022/05/19 09:57:13;;;;;;;25.00;5.55;;;23.70;98.10;;;;;;5068932;28;20076;-65
2022/05/19 09:59:48;;;;;;;24.17;6.93;;;23.60;99.30;;;;;;5068412;28;20468;-65
2022/05/19 10:02:38;;;;;;;33.28;6.30;;;23.60;99.90;;;;;;5067829;28;20412;-65
2022/05/19 10:05:38;;;;;;;31.92;6.97;;;23.40;99.90;;;;;;5068920;28;20107;-65
2022/05/19 10:08:12;;;;;;;29.83;6.88;;;23.30;99.90;;;;;;5058808;28;20083;-65
2022/05/19 10:11:14;;;;;;;28.45;6.47;;;23.20;99.90;;;;;;5084757;28;20166;-66
2022/05/19 10:13:43;;;;;;;31.48;6.97;;;23.20;99.90;;;;;;5056991;28;20088;-64
2022/05/19 10:16:51;;;;;;;31.33;6.53;;;23.20;99.90;;;;;;5050799;28;20072;-66
2022/05/19 10:19:56;;;;;;;;;;;23.10;99.90;;;;;;5067720;28;20104;-65
2022/05/19 10:22:48;;;;;;;27.90;6.93;;;23.10;99.90;;;;;;5011256;28;20029;-66
2022/05/19 10:25:27;;;;;;;29.05;7.30;;;22.90;99.90;;;;;;5009134;28;20547;-66
2022/05/19 10:31:25;;;;;;;34.47;7.53;;;22.90;99.90;;;;;;5027181;28;20083;-64
2022/05/19 10:34:21;;;;;;;32.10;8.05;;;22.90;99.90;;;;;;4995249;28;20095;-65
2022/05/19 10:37:07;;;;;;;34.17;8.35;;;22.80;99.90;;;;;;5010079;28;20080;-65
2022/05/19 10:40:03;;;;;;;35.88;8.90;;;22.70;99.90;;;;;;5010301;28;20101;-65
2022/05/19 10:42:57;;;;;;;32.15;10.05;;;22.70;99.90;;;;;;5010720;28;20110;-65
2022/05/19 10:45:33;;;;;;;32.97;9.07;;;22.60;99.90;;;;;;5025154;28;20104;-66
2022/05/19 10:48:20;;;;;;;36.10;7.93;;;22.60;99.90;;;;;;5008620;28;20149;-65
2022/05/19 10:50:55;;;;;;;38.03;8.07;;;22.60;99.90;;;;;;5008324;28;20071;-65
2022/05/19 10:54:03;;;;;;;39.40;7.93;;;22.50;99.90;;;;;;5042148;28;20544;-65
2022/05/19 10:56:54;;;;;;;42.37;8.37;;;22.50;99.90;;;;;;5068746;28;20424;-65
2022/05/19 10:59:36;;;;;;;38.60;8.63;;;22.50;99.90;;;;;;5067224;28;20099;-65
2022/05/19 11:02:43;;;;;;;33.05;6.68;;;22.30;99.90;;;;;;5071009;28;20068;-64
2022/05/19 11:05:36;;;;;;;37.08;7.78;;;22.30;99.90;;;;;;5065076;28;20080;-65
2022/05/19 11:08:37;;;;;;;32.10;7.43;;;22.30;99.90;;;;;;5067089;28;20084;-64
2022/05/19 11:11:22;;;;;;;36.85;7.55;;;22.30;99.90;;;;;;5067431;28;20466;-65
2022/05/19 11:13:48;;;;;;;33.40;7.13;;;22.30;99.90;;;;;;5067607;28;20090;-67
2022/05/19 11:16:37;;;;;;;33.10;7.10;;;22.30;99.90;;;;;;5067748;28;20068;-65
2022/05/19 11:19:21;;;;;;;37.85;7.10;;;22.30;99.90;;;;;;5066672;28;20211;-63
2022/05/19 11:22:01;;;;;;;29.23;7.68;;;22.30;99.90;;;;;;5066927;28;20545;-64
2022/05/19 11:27:38;;;;;;;35.40;8.00;;;22.20;99.90;;;;;;5069989;28;21065;-64
2022/05/19 11:30:18;;;;;;;38.03;7.72;;;22.10;99.90;;;;;;5067356;28;20087;-65
2022/05/19 11:32:49;;;;;;;36.95;9.07;;;22.10;99.90;;;;;;5066629;28;20083;-65
2022/05/19 11:35:25;;;;;;;39.35;9.15;;;22.10;99.90;;;;;;5068605;28;20093;-64
2022/05/19 11:38:18;;;;;;;32.78;8.95;;;22.10;99.90;;;;;;5072532;28;20102;-64
2022/05/19 11:40:51;;;;;;;33.78;9.25;;;22.00;99.90;;;;;;5068999;28;20078;-65
2022/05/19 11:43:34;;;;;;;33.83;9.70;;;22.00;99.90;;;;;;5087415;28;20129;-64
2022/05/19 11:46:01;;;;;;;38.63;10.27;;;21.90;99.90;;;;;;5087035;28;20103;-65
2022/05/19 11:55:19;;;;;;;32.33;7.85;;;21.80;99.90;;;;;;5072228;28;20114;-64
2022/05/19 11:58:01;;;;;;;27.75;7.63;;;21.90;99.90;;;;;;5070260;28;20189;-64
2022/05/19 12:00:33;;;;;;;33.03;7.80;;;21.80;99.90;;;;;;5071108;28;20073;-65
2022/05/19 12:03:06;;;;;;;32.28;8.45;;;21.70;99.90;;;;;;5071479;28;20283;-64
2022/05/19 12:05:56;;;;;;;29.35;7.63;;;21.60;99.90;;;;;;5084384;28;20064;-64
2022/05/19 12:08:36;;;;;;;28.23;6.45;;;21.60;99.90;;;;;;5070591;28;20103;-65
2022/05/19 12:11:52;;;;;;;34.58;7.05;;;21.70;99.90;;;;;;5072062;28;20107;-64
2022/05/19 12:14:27;;;;;;;29.15;7.07;;;21.60;99.90;;;;;;5011687;28;20474;-65
2022/05/19 12:16:57;;;;;;;32.75;8.00;;;21.50;99.90;;;;;;5013319;28;20080;-65
2022/05/19 12:19:30;;;;;;;27.60;6.80;;;21.50;99.90;;;;;;5029806;28;20168;-65
2022/05/19 12:21:57;;;;;;;28.25;6.50;;;21.50;99.90;;;;;;5032509;28;20147;-64
2022/05/19 12:24:34;;;;;;;33.58;6.28;;;21.50;99.90;;;;;;5014651;28;20111;-64
2022/05/19 12:27:13;;;;;;;32.83;7.30;;;21.50;99.90;;;;;;5037561;28;20072;-64
2022/05/19 12:29:40;;;;;;;32.45;7.20;;;21.50;99.90;;;;;;5013142;28;20092;-67
2022/05/19 12:32:16;;;;;;;28.77;7.22;;;21.50;99.90;;;;;;5018003;28;20081;-65
2022/05/19 12:34:51;;;;;;;29.55;7.30;;;21.50;99.90;;;;;;5034259;28;20079;-64
2022/05/19 12:37:34;;;;;;;34.97;6.65;;;21.40;99.90;;;;;;5013843;28;20093;-64
2022/05/19 12:40:22;;;;;;;34.40;7.88;;;21.30;99.90;;;;;;5032567;28;20111;-64
2022/05/19 12:42:50;;;;;;;38.83;8.23;;;21.30;99.90;;;;;;5031160;28;20547;-63
2022/05/19 12:45:24;;;;;;;31.42;8.05;;;21.40;99.90;;;;;;5054172;28;20094;-64
2022/05/19 12:48:20;;;;;;;37.20;8.25;;;21.30;99.90;;;;;;5068012;28;20181;-64
2022/05/19 12:50:51;;;;;;;27.67;7.43;;;21.30;99.90;;;;;;5069574;28;20144;-64
2022/05/19 12:53:23;;;;;;;33.88;7.47;;;21.20;99.90;;;;;;5070598;28;20064;-64
2022/05/19 12:55:58;;;;;;;33.13;7.03;;;21.20;99.90;;;;;;5068847;28;20076;-64
2022/05/19 12:58:34;;;;;;;34.25;7.43;;;21.20;99.90;;;;;;5066843;28;20084;-64
2022/05/19 13:01:17;;;;;;;21.43;6.30;;;21.10;99.90;;;;;;5073468;28;20079;-66
2022/05/19 13:03:47;;;;;;;32.33;7.00;;;21.20;99.90;;;;;;5070535;28;20483;-64
2022/05/19 13:06:14;;;;;;;33.08;8.65;;;21.30;99.90;;;;;;5070883;28;20082;-64
2022/05/19 13:08:49;;;;;;;30.20;7.63;;;21.10;99.90;;;;;;5069603;28;20117;-64
2022/05/19 13:11:21;;;;;;;40.20;9.98;;;21.10;99.90;;;;;;5069519;28;20075;-64
2022/05/19 13:13:53;;;;;;;41.90;10.13;;;21.00;99.90;;;;;;5067267;28;20444;-65
2022/05/19 13:16:41;;;;;;;38.53;11.40;;;21.10;99.90;;;;;;5070007;28;20067;-66
2022/05/19 13:19:13;;;;;;;;;;;21.10;99.90;;;;;;5069164;28;20152;-65
2022/05/19 13:22:06;;;;;;;31.50;10.15;;;21.10;99.90;;;;;;5068785;28;19956;-65
2022/05/19 13:24:39;;;;;;;37.83;10.45;;;21.10;99.90;;;;;;5073218;28;20445;-65